Time;durP1;ratioP1;P1;durP2;ratioP2;P2;SDS_P1;SDS_P2;PMS_P1;PMS_P2;Temp;Humidity;BMP_temperature;BMP_pressure;BME280_temperature;BME280_humidity;BME280_pressure;Samples;Min_cycle;Max_cycle;Signal;HPM_P1;HPM_P2
2022/01/04 00:00:16;;;;;;;8.50;6.10;;;;;;;7.87;86.83;100221.53;5025738;28;20389;-68
2022/01/04 00:02:42;;;;;;;11.40;6.47;;;;;;;7.86;86.74;100209.56;5031415;28;20026;-67
2022/01/04 00:05:08;;;;;;;9.23;6.38;;;;;;;7.84;86.47;100202.88;5025871;28;20038;-67
2022/01/04 00:07:34;;;;;;;9.05;6.30;;;;;;;7.83;86.79;100191.72;5011364;28;20076;-67
2022/01/04 00:10:00;;;;;;;8.98;6.50;;;;;;;7.81;87.17;100190.22;5025443;28;20032;-68
2022/01/04 00:15:10;;;;;;;10.18;7.30;;;;;;;7.82;86.79;100190.09;5027944;28;20377;-68
2022/01/04 00:17:35;;;;;;;11.23;7.70;;;;;;;7.75;87.11;100176.03;5013369;28;20108;-68
2022/01/04 00:20:03;;;;;;;10.68;8.10;;;;;;;7.76;86.60;100182.84;5013129;28;20056;-71
2022/01/04 00:22:28;;;;;;;11.18;7.70;;;;;;;7.78;86.50;100175.78;5031216;28;20031;-70
2022/01/04 00:24:54;;;;;;;9.20;7.68;;;;;;;7.76;86.08;100169.94;5030779;28;20025;-67
2022/01/04 00:27:19;;;;;;;12.27;8.05;;;;;;;7.76;86.60;100164.75;5031111;28;20068;-68
2022/01/04 00:29:44;;;;;;;10.95;7.80;;;;;;;7.74;86.93;100148.56;5028589;28;20408;-69
2022/01/04 00:32:10;;;;;;;8.73;7.53;;;;;;;7.74;86.88;100148.56;5031013;28;20491;-72
2022/01/04 00:34:35;;;;;;;10.00;8.20;;;;;;;7.73;86.62;100141.75;5013948;28;20033;-67
2022/01/04 00:37:01;;;;;;;11.05;7.82;;;;;;;7.73;86.55;100131.44;5011077;28;20021;-68
2022/01/04 00:39:26;;;;;;;10.18;7.90;;;;;;;7.71;86.91;100120.44;5011007;28;20029;-70
2022/01/04 00:41:52;;;;;;;11.25;7.78;;;;;;;7.69;87.00;100120.56;5011031;28;20048;-71
2022/01/04 00:44:17;;;;;;;12.20;7.93;;;;;;;7.65;87.20;100108.03;5012997;28;20053;-68
2022/01/04 00:46:43;;;;;;;10.30;8.23;;;;;;;7.65;86.43;100118.34;4993143;28;20382;-68
2022/01/04 00:49:11;;;;;;;11.35;8.45;;;;;;;7.68;86.58;100118.09;5006891;28;20074;-68
2022/01/04 00:51:42;;;;;;;11.57;8.30;;;;;;;7.65;86.61;100102.84;5030458;28;20040;-68
2022/01/04 00:54:09;;;;;;;10.50;7.85;;;;;;;7.68;86.22;100102.59;5012808;28;20040;-68
2022/01/04 00:56:34;;;;;;;10.90;7.28;;;;;;;7.64;86.87;100106.38;5030546;28;20093;-68
2022/01/04 00:59:00;;;;;;;9.88;7.13;;;;;;;7.65;86.57;100097.69;5022696;28;20034;-67
2022/01/04 01:01:25;;;;;;;9.20;7.20;;;;;;;7.62;86.40;100095.34;5030540;28;20386;-68
2022/01/04 01:03:51;;;;;;;9.45;7.20;;;;;;;7.63;86.60;100086.69;5026681;28;20037;-67
2022/01/04 01:06:17;;;;;;;9.57;7.00;;;;;;;7.64;86.35;100085.75;5016657;28;20026;-67
2022/01/04 01:08:43;;;;;;;10.60;6.80;;;;;;;7.64;86.25;100091.72;5010736;28;20030;-67
2022/01/04 01:11:09;;;;;;;8.05;6.10;;;;;;;7.62;86.21;100087.59;4993018;28;20017;-68
2022/01/04 01:13:35;;;;;;;8.95;6.28;;;;;;;7.60;86.76;100092.09;4992882;28;20117;-67
2022/01/04 01:16:00;;;;;;;8.73;5.95;;;;;;;7.59;86.76;100083.53;5010382;28;20769;-67
2022/01/04 01:18:26;;;;;;;8.07;5.75;;;;;;;7.60;86.76;100094.66;5019903;28;20920;-67
2022/01/04 01:20:52;;;;;;;7.28;5.82;;;;;;;7.60;86.69;100084.34;5030527;28;20373;-67
2022/01/04 01:23:19;;;;;;;10.30;6.07;;;;;;;7.57;86.11;100079.41;5012788;28;20025;-67
2022/01/04 01:25:44;;;;;;;8.13;5.68;;;;;;;7.59;86.80;100072.38;5030081;28;20102;-67
2022/01/04 01:28:10;;;;;;;9.75;5.82;;;;;;;7.59;86.45;100072.38;5008155;28;20421;-68
2022/01/04 01:30:38;;;;;;;7.63;5.28;;;;;;;7.59;86.33;100067.22;4992754;28;20022;-68
2022/01/04 01:33:04;;;;;;;7.95;5.50;;;;;;;7.60;86.08;100063.69;5012458;28;20030;-70
2022/01/04 01:35:30;;;;;;;9.32;5.72;;;;;;;7.58;86.14;100063.00;4996521;28;20045;-67
2022/01/04 01:37:57;;;;;;;8.43;5.90;;;;;;;7.53;86.19;100065.16;5014225;28;20548;-67
2022/01/04 01:40:22;;;;;;;8.75;5.95;;;;;;;7.54;86.52;100059.03;5014208;28;20069;-68
2022/01/04 01:42:48;;;;;;;9.75;6.35;;;;;;;7.51;86.50;100049.78;5013952;28;20057;-67
2022/01/04 01:45:16;;;;;;;8.90;6.65;;;;;;;7.50;86.82;100055.06;5014199;28;20026;-68
2022/01/04 01:47:42;;;;;;;9.63;6.90;;;;;;;7.50;86.53;100052.47;5012681;28;20530;-67
2022/01/04 01:50:09;;;;;;;8.77;6.70;;;;;;;7.49;86.44;100037.94;5024936;28;20492;-67
2022/01/04 01:52:35;;;;;;;9.02;7.55;;;;;;;7.50;86.44;100040.41;5033647;28;20022;-67
2022/01/04 01:55:00;;;;;;;10.50;7.40;;;;;;;7.47;86.71;100032.09;5033848;28;20040;-67
2022/01/04 01:57:26;;;;;;;9.50;8.00;;;;;;;7.43;86.51;100032.34;5033985;28;20521;-67
2022/01/04 01:59:51;;;;;;;10.98;7.65;;;;;;;7.41;86.71;100039.41;5034188;28;20033;-68
2022/01/04 02:02:16;;;;;;;10.85;7.82;;;;;;;7.43;87.04;100045.25;5030582;28;20033;-68
2022/01/04 02:04:42;;;;;;;10.73;8.48;;;;;;;7.44;86.19;100028.00;5023450;28;20179;-67
2022/01/04 02:07:08;;;;;;;11.27;8.43;;;;;;;7.42;86.40;100024.72;5013647;28;20034;-67
2022/01/04 02:09:37;;;;;;;12.27;8.07;;;;;;;7.41;86.12;100028.25;5014009;28;20036;-67
2022/01/04 02:12:03;;;;;;;10.30;8.35;;;;;;;7.41;86.95;100023.09;5013978;28;20077;-67
2022/01/04 02:14:29;;;;;;;10.68;8.80;;;;;;;7.35;86.37;100001.19;5013992;28;20030;-68
2022/01/04 02:16:54;;;;;;;11.88;9.32;;;;;;;7.39;86.97;100010.31;5013685;28;20109;-67
2022/01/04 02:19:19;;;;;;;11.05;8.65;;;;;;;7.40;86.38;100001.66;5022048;28;20029;-68
2022/01/04 02:21:45;;;;;;;8.95;8.02;;;;;;;7.38;86.37;99998.34;5033073;28;20522;-68
2022/01/04 02:24:10;;;;;;;9.65;8.35;;;;;;;7.39;86.86;99994.81;5033431;28;20519;-68
2022/01/04 02:26:35;;;;;;;11.43;9.23;;;;;;;7.37;87.20;99988.97;5032280;28;20384;-68
2022/01/04 02:29:02;;;;;;;10.82;9.02;;;;;;;7.35;87.10;99993.47;4989693;28;20053;-67
2022/01/04 02:31:28;;;;;;;10.65;8.90;;;;;;;7.35;86.95;99983.16;5012930;28;20022;-68
2022/01/04 02:33:53;;;;;;;9.73;8.63;;;;;;;7.37;87.03;99986.41;5012673;28;20057;-67
2022/01/04 02:36:19;;;;;;;10.00;8.38;;;;;;;7.36;87.09;99987.34;5007904;28;20113;-67
2022/01/04 02:38:44;;;;;;;9.68;7.97;;;;;;;7.35;86.24;99990.88;5013053;28;20064;-67
2022/01/04 02:41:09;;;;;;;10.57;8.57;;;;;;;7.35;86.52;99990.06;5013135;28;20528;-67
2022/01/04 02:43:35;;;;;;;9.85;7.38;;;;;;;7.36;87.04;99984.78;5011974;28;20426;-68
2022/01/04 02:46:00;;;;;;;8.90;7.85;;;;;;;7.37;86.75;99981.25;5012646;28;20030;-68
2022/01/04 02:48:25;;;;;;;8.77;7.65;;;;;;;7.36;87.12;99974.47;5020472;28;20053;-67
2022/01/04 02:50:51;;;;;;;9.93;7.35;;;;;;;7.31;86.42;99971.44;5001969;28;20120;-67
2022/01/04 02:53:17;;;;;;;9.80;7.45;;;;;;;7.34;86.32;99965.19;5032660;28;20099;-67
2022/01/04 02:55:43;;;;;;;9.35;6.72;;;;;;;7.32;86.38;99967.09;5032618;28;20029;-67
2022/01/04 02:58:08;;;;;;;9.75;7.13;;;;;;;7.32;86.33;99957.59;5032582;28;20037;-67
2022/01/04 03:00:34;;;;;;;9.90;7.05;;;;;;;7.31;86.88;99957.72;5032499;28;20047;-67
2022/01/04 03:02:59;;;;;;;9.38;7.18;;;;;;;7.31;86.82;99947.41;5001076;28;20461;-67
2022/01/04 03:05:25;;;;;;;9.20;6.82;;;;;;;7.30;86.93;99938.84;5012948;28;20029;-67
2022/01/04 03:07:50;;;;;;;9.52;7.50;;;;;;;7.29;86.14;99937.22;5025875;28;20057;-68
2022/01/04 03:10:15;;;;;;;8.20;6.82;;;;;;;7.29;86.71;99942.38;5032996;28;20060;-68
2022/01/04 03:12:44;;;;;;;8.23;7.10;;;;;;;7.25;86.57;99940.97;5032269;28;20359;-68
2022/01/04 03:15:13;;;;;;;8.30;6.68;;;;;;;7.32;86.22;99936.94;5032688;28;20068;-68
2022/01/04 03:17:39;;;;;;;9.10;6.82;;;;;;;7.27;86.66;99923.59;5032071;28;20100;-68
2022/01/04 03:20:05;;;;;;;8.40;7.13;;;;;;;7.28;86.14;99920.09;5022161;28;20145;-69
2022/01/04 03:22:30;;;;;;;10.48;7.82;;;;;;;7.27;86.62;99917.63;4991761;28;20075;-69
2022/01/04 03:24:56;;;;;;;10.13;8.27;;;;;;;7.28;86.85;99899.44;5012278;28;20029;-68
2022/01/04 03:27:21;;;;;;;9.35;7.70;;;;;;;7.24;85.99;99892.13;5026263;28;20032;-68
2022/01/04 03:29:46;;;;;;;10.32;7.90;;;;;;;7.24;86.71;99892.94;5032161;28;20457;-68
2022/01/04 03:32:12;;;;;;;10.77;8.05;;;;;;;7.25;86.54;99891.16;5031955;28;20064;-68
2022/01/04 03:34:37;;;;;;;10.35;7.80;;;;;;;7.24;86.98;99882.63;5017998;28;20025;-68
2022/01/04 03:37:03;;;;;;;10.02;7.95;;;;;;;7.23;86.74;99878.41;5012267;28;20037;-68
2022/01/04 03:39:28;;;;;;;9.98;7.80;;;;;;;7.22;86.16;99863.84;5014682;28;20485;-68
2022/01/04 03:41:53;;;;;;;9.10;7.50;;;;;;;7.22;86.98;99858.69;5001418;28;20467;-69
2022/01/04 03:44:20;;;;;;;12.15;8.68;;;;;;;7.19;86.93;99848.66;5016108;28;20484;-69
2022/01/04 03:46:54;;;;;;;11.32;8.63;;;;;;;7.23;86.52;99850.03;5011884;28;20022;-68
2022/01/04 03:49:19;;;;;;;11.27;8.70;;;;;;;7.20;86.89;99850.28;4994104;28;20041;-68
2022/01/04 03:51:45;;;;;;;11.77;9.18;;;;;;;7.21;86.14;99836.44;5000468;28;20026;-68
2022/01/04 03:54:10;;;;;;;10.88;9.15;;;;;;;7.18;86.68;99847.03;5028325;28;20548;-69
2022/01/04 03:56:36;;;;;;;10.60;9.00;;;;;;;7.17;87.16;99840.22;5031263;28;20078;-68
2022/01/04 03:59:01;;;;;;;11.00;8.65;;;;;;;7.16;86.51;99833.41;5014433;28;20033;-68
2022/01/04 04:01:27;;;;;;;10.77;8.63;;;;;;;7.17;86.40;99819.59;5008661;28;20053;-68
2022/01/04 04:03:53;;;;;;;12.20;9.10;;;;;;;7.16;86.90;99817.94;5028779;28;20026;-68
2022/01/04 04:06:18;;;;;;;11.07;8.55;;;;;;;7.15;86.56;99817.13;5031568;28;20033;-68
2022/01/04 04:08:43;;;;;;;10.80;8.20;;;;;;;7.15;86.80;99816.31;5017521;28;20036;-68
2022/01/04 04:11:11;;;;;;;10.48;8.82;;;;;;;7.15;86.37;99811.16;5031231;28;20029;-68
2022/01/04 04:13:36;;;;;;;11.43;8.60;;;;;;;7.15;86.96;99813.75;5031105;28;20033;-68
2022/01/04 04:16:01;;;;;;;10.75;8.48;;;;;;;7.13;86.82;99797.59;5014760;28;20018;-68
2022/01/04 04:18:27;;;;;;;11.75;8.30;;;;;;;7.16;86.85;99803.28;5011309;28;20040;-68
2022/01/04 04:20:52;;;;;;;12.50;8.45;;;;;;;7.16;86.53;99794.75;5011753;28;20022;-68
2022/01/04 04:23:17;;;;;;;11.70;8.38;;;;;;;7.16;87.06;99787.00;5014076;28;20030;-68
2022/01/04 04:25:43;;;;;;;10.75;8.73;;;;;;;7.17;86.72;99788.66;5030828;28;20025;-68
2022/01/04 04:28:09;;;;;;;11.85;9.13;;;;;;;7.10;87.25;99779.78;5013077;28;20029;-68
2022/01/04 04:30:34;;;;;;;11.23;9.13;;;;;;;7.15;86.87;99785.38;5031010;28;20032;-68
2022/01/04 04:33:00;;;;;;;11.30;8.60;;;;;;;7.14;86.98;99788.91;5013191;28;20445;-68
2022/01/04 04:35:25;;;;;;;11.30;9.35;;;;;;;7.15;87.11;99787.94;5006775;28;20076;-68
2022/01/04 04:37:51;;;;;;;11.93;9.32;;;;;;;7.14;87.32;99788.91;5012690;28;20042;-68
2022/01/04 04:40:16;;;;;;;11.40;8.50;;;;;;;7.14;87.36;99781.97;4998716;28;20029;-68
2022/01/04 04:42:42;;;;;;;13.25;9.27;;;;;;;7.14;86.80;99786.31;5011261;28;20050;-68
2022/01/04 04:45:08;;;;;;;11.32;9.00;;;;;;;7.10;87.31;99780.59;5029953;28;20398;-68
2022/01/04 04:47:34;;;;;;;12.07;9.40;;;;;;;7.08;86.81;99781.69;5004892;28;20030;-68
2022/01/04 04:50:00;;;;;;;10.90;8.50;;;;;;;7.07;86.85;99770.56;5010551;28;20076;-68
2022/01/04 04:52:26;;;;;;;11.40;9.20;;;;;;;7.07;87.26;99774.91;5010260;28;20065;-67
2022/01/04 04:54:51;;;;;;;13.82;11.43;;;;;;;7.06;87.13;99775.84;5002451;28;20041;-67
2022/01/04 04:57:16;;;;;;;11.13;9.40;;;;;;;7.05;87.01;99774.19;5010799;28;20032;-68
2022/01/04 04:59:42;;;;;;;10.68;8.73;;;;;;;7.05;87.21;99775.00;5010909;28;20171;-68
2022/01/04 05:02:08;;;;;;;12.13;9.40;;;;;;;7.03;87.46;99770.94;5010554;28;20521;-68
2022/01/04 05:04:34;;;;;;;11.80;9.05;;;;;;;7.05;87.51;99769.03;5019186;28;20094;-68
2022/01/04 05:07:00;;;;;;;11.02;8.57;;;;;;;7.05;86.98;99769.03;4988346;28;20029;-68
2022/01/04 05:09:25;;;;;;;11.02;8.77;;;;;;;7.04;86.69;99757.91;5009666;28;20022;-69
2022/01/04 05:11:51;;;;;;;11.48;8.57;;;;;;;7.04;86.78;99767.41;5004924;28;20034;-68
2022/01/04 05:14:16;;;;;;;13.68;8.65;;;;;;;7.03;86.80;99770.94;5004523;28;20455;-68
2022/01/04 05:16:41;;;;;;;11.05;9.05;;;;;;;7.03;86.82;99760.63;5014751;28;21118;-67
2022/01/04 05:19:07;;;;;;;11.10;9.68;;;;;;;7.04;87.46;99751.94;4996917;28;20037;-68
2022/01/04 05:21:32;;;;;;;12.10;9.63;;;;;;;7.02;87.39;99753.84;5030328;28;20036;-67
2022/01/04 05:23:57;;;;;;;11.57;9.40;;;;;;;7.03;86.80;99742.56;5034255;28;20366;-68
2022/01/04 05:26:23;;;;;;;14.57;11.70;;;;;;;7.00;87.32;99746.25;5016147;28;20034;-68
2022/01/04 05:28:48;;;;;;;12.73;10.02;;;;;;;7.02;87.06;99746.09;5006776;28;20029;-67
2022/01/04 05:31:14;;;;;;;11.77;9.88;;;;;;;7.00;86.86;99740.28;4996652;28;20033;-68
2022/01/04 05:33:40;;;;;;;11.05;9.68;;;;;;;6.99;87.76;99738.63;5014453;28;20120;-68
2022/01/04 05:36:05;;;;;;;12.60;9.82;;;;;;;6.96;86.94;99733.72;4996544;28;20463;-68
2022/01/04 05:38:31;;;;;;;12.40;10.20;;;;;;;6.94;87.13;99715.81;5022540;28;20041;-67
2022/01/04 05:40:56;;;;;;;11.88;10.27;;;;;;;6.92;87.70;99710.78;5014646;28;20117;-68
2022/01/04 05:43:21;;;;;;;11.55;10.18;;;;;;;6.94;87.91;99710.66;4996294;28;20046;-68
2022/01/04 05:45:47;;;;;;;13.00;10.02;;;;;;;6.97;87.83;99707.00;5014127;28;20033;-68
2022/01/04 05:48:13;;;;;;;12.18;9.65;;;;;;;6.95;87.51;99712.28;5014004;28;20120;-68
2022/01/04 05:50:38;;;;;;;13.00;9.60;;;;;;;6.95;87.98;99711.47;4996375;28;20033;-68
2022/01/04 05:53:04;;;;;;;13.48;9.88;;;;;;;6.98;87.33;99708.63;5022250;28;20450;-67
2022/01/04 05:55:30;;;;;;;13.65;9.93;;;;;;;6.90;87.62;99704.94;5033824;28;20044;-68
2022/01/04 05:57:55;;;;;;;13.55;10.27;;;;;;;6.92;87.99;99707.38;5033852;28;20482;-68
2022/01/04 06:00:20;;;;;;;13.60;10.35;;;;;;;6.93;87.43;99717.56;5033488;28;20035;-67
2022/01/04 06:02:46;;;;;;;15.93;11.18;;;;;;;6.88;87.69;99712.00;5033742;28;20026;-68
2022/01/04 06:05:11;;;;;;;15.15;10.93;;;;;;;6.90;88.04;99709.28;5033693;28;20029;-68
2022/01/04 06:07:36;;;;;;;14.30;10.75;;;;;;;6.88;88.42;99712.00;5025204;28;20061;-67
2022/01/04 06:10:03;;;;;;;14.00;11.02;;;;;;;6.98;88.06;99713.78;5028256;28;20071;-68
2022/01/04 06:15:03;;;;;;;14.27;11.07;;;;;;;6.89;88.80;99693.00;5013917;28;20045;-67
2022/01/04 06:17:29;;;;;;;18.27;14.15;;;;;;;6.88;88.13;99701.69;5013777;28;20029;-68
2022/01/04 06:19:55;;;;;;;17.05;11.93;;;;;;;6.89;87.87;99703.31;5013229;28;20078;-68
2022/01/04 06:22:25;;;;;;;18.17;12.50;;;;;;;6.86;88.47;99693.25;4995118;28;20021;-68
2022/01/04 06:24:52;;;;;;;15.95;12.45;;;;;;;6.86;88.28;99689.84;5030045;28;20032;-68
2022/01/04 06:27:17;;;;;;;16.58;12.50;;;;;;;6.89;88.25;99687.84;5015140;28;20033;-68
2022/01/04 06:29:43;;;;;;;17.35;12.45;;;;;;;6.89;88.96;99685.28;5033056;28;20026;-68
2022/01/04 06:32:10;;;;;;;17.77;12.98;;;;;;;6.85;89.11;99694.19;5033115;28;20033;-67
2022/01/04 06:34:36;;;;;;;17.55;13.02;;;;;;;6.86;88.72;99693.25;5017155;28;20033;-68
2022/01/04 06:37:02;;;;;;;18.13;13.50;;;;;;;6.84;89.54;99705.47;5013124;28;20040;-68
2022/01/04 06:39:28;;;;;;;15.55;13.02;;;;;;;6.83;89.05;99696.09;5015003;28;20079;-68
2022/01/04 06:41:53;;;;;;;18.23;13.60;;;;;;;6.81;89.08;99679.94;5010594;28;20046;-69
2022/01/04 06:44:19;;;;;;;18.33;14.07;;;;;;;6.78;89.36;99687.94;5013074;28;20081;-68
2022/01/04 06:46:45;;;;;;;18.13;14.82;;;;;;;6.78;90.25;99685.34;5013168;28;20068;-68
2022/01/04 06:49:15;;;;;;;18.95;14.73;;;;;;;6.75;89.87;99685.59;4997010;28;20033;-76
2022/01/04 06:51:41;;;;;;;19.13;14.63;;;;;;;6.75;89.75;99680.44;5030608;28;20037;-75
2022/01/04 06:54:09;;;;;;;18.30;13.88;;;;;;;6.77;89.53;99673.44;5032661;28;20056;-69
2022/01/04 06:56:34;;;;;;;24.92;18.40;;;;;;;6.79;90.36;99666.38;5032792;28;20030;-68
2022/01/04 06:59:00;;;;;;;22.85;16.55;;;;;;;6.78;89.70;99657.00;5032661;28;20628;-68
2022/01/04 07:01:25;;;;;;;21.35;14.90;;;;;;;6.79;90.21;99661.22;5032502;28;20083;-68
2022/01/04 07:03:51;;;;;;;20.50;15.27;;;;;;;6.78;90.14;99659.59;5027326;28;20034;-68
2022/01/04 07:06:16;;;;;;;19.55;16.00;;;;;;;6.75;90.20;99659.03;5031316;28;20025;-68
2022/01/04 07:08:42;;;;;;;19.60;15.68;;;;;;;6.78;89.72;99653.63;5032520;28;20056;-67
2022/01/04 07:11:07;;;;;;;21.63;16.73;;;;;;;6.82;89.94;99650.63;5032399;28;20091;-67
2022/01/04 07:13:33;;;;;;;20.15;16.35;;;;;;;6.80;89.20;99652.53;5016636;28;20486;-67
2022/01/04 07:15:58;;;;;;;20.70;16.25;;;;;;;6.82;90.00;99640.31;5007924;28;20057;-67
2022/01/04 07:18:23;;;;;;;20.13;16.35;;;;;;;6.78;90.03;99638.97;5024459;28;20571;-67
2022/01/04 07:20:49;;;;;;;19.42;16.30;;;;;;;6.79;90.18;99635.44;5032352;28;20101;-67
2022/01/04 07:23:14;;;;;;;21.95;16.65;;;;;;;6.80;89.83;99629.34;5029689;28;20032;-67
2022/01/04 07:25:40;;;;;;;23.73;19.05;;;;;;;6.79;89.64;99630.28;5014391;28;20527;-67
2022/01/04 07:28:05;;;;;;;24.23;19.52;;;;;;;6.80;90.06;99629.34;5032230;28;20033;-67
2022/01/04 07:30:31;;;;;;;22.45;19.30;;;;;;;6.76;90.16;99616.84;5022346;28;20026;-67
2022/01/04 07:32:56;;;;;;;23.05;19.05;;;;;;;6.78;89.61;99602.91;5032053;28;20021;-67
2022/01/04 07:35:22;;;;;;;24.83;18.67;;;;;;;6.77;89.91;99598.69;5000059;28;20033;-67
2022/01/04 07:37:47;;;;;;;23.42;19.35;;;;;;;6.73;90.20;99591.34;5012101;28;20030;-67
2022/01/04 07:40:13;;;;;;;21.38;17.25;;;;;;;6.73;90.24;99605.03;5012292;28;20037;-67
2022/01/04 07:42:38;;;;;;;20.05;17.52;;;;;;;6.73;90.34;99605.03;4994399;28;20026;-67
2022/01/04 07:45:04;;;;;;;21.20;17.17;;;;;;;6.75;90.02;99613.44;5012238;28;20079;-67
2022/01/04 07:47:30;;;;;;;21.17;17.20;;;;;;;6.76;90.57;99615.06;5013759;28;20045;-67
2022/01/04 07:49:55;;;;;;;20.23;16.35;;;;;;;6.76;90.40;99620.22;5016677;28;20040;-67
2022/01/04 07:52:21;;;;;;;21.90;17.38;;;;;;;6.76;89.99;99625.38;5028100;28;20458;-67
2022/01/04 07:54:46;;;;;;;21.25;17.75;;;;;;;6.74;89.98;99622.13;5031575;28;20506;-67
2022/01/04 07:57:11;;;;;;;24.17;18.23;;;;;;;6.79;90.21;99635.44;5031930;28;20100;-68
2022/01/04 07:59:37;;;;;;;21.20;17.95;;;;;;;6.76;89.79;99633.13;5031544;28;20037;-67
2022/01/04 08:02:02;;;;;;;22.83;18.13;;;;;;;6.76;90.22;99620.22;4998927;28;20034;-69
2022/01/04 08:04:28;;;;;;;22.48;18.00;;;;;;;6.76;90.16;99620.22;5011380;28;20037;-67
2022/01/04 08:06:53;;;;;;;21.33;17.73;;;;;;;6.75;90.05;99612.63;5027528;28;20025;-68
2022/01/04 08:09:18;;;;;;;22.55;19.15;;;;;;;6.75;90.54;99613.44;5031343;28;20496;-67
2022/01/04 08:11:43;;;;;;;24.35;19.15;;;;;;;6.77;89.84;99606.44;5002159;28;20542;-67
2022/01/04 08:14:09;;;;;;;23.08;19.70;;;;;;;6.76;90.36;99609.91;4994016;28;20040;-67
2022/01/04 08:16:34;;;;;;;22.83;20.20;;;;;;;6.77;89.73;99616.72;5007048;28;20014;-67
2022/01/04 08:19:00;;;;;;;25.67;20.67;;;;;;;6.77;89.85;99621.88;5022191;28;20021;-67
2022/01/04 08:21:26;;;;;;;24.88;20.08;;;;;;;6.79;89.66;99630.28;5026192;28;20025;-67
2022/01/04 08:23:51;;;;;;;26.27;21.10;;;;;;;6.78;89.90;99628.66;5017024;28;20494;-68
2022/01/04 08:26:16;;;;;;;26.10;21.02;;;;;;;6.78;90.14;99627.84;4993553;28;20081;-67
2022/01/04 08:28:42;;;;;;;23.15;20.60;;;;;;;6.77;89.92;99632.19;4999726;28;20113;-67
2022/01/04 08:31:07;;;;;;;25.75;22.65;;;;;;;6.80;90.31;99629.34;5002695;28;20470;-68
2022/01/04 08:33:33;;;;;;;27.20;21.65;;;;;;;6.80;90.40;99631.09;5001549;28;20058;-69
2022/01/04 08:35:58;;;;;;;27.70;22.77;;;;;;;6.77;89.59;99629.63;5005653;28;20065;-67
2022/01/04 08:38:23;;;;;;;28.42;23.75;;;;;;;6.78;89.79;99638.97;4990681;28;20049;-68
2022/01/04 08:40:49;;;;;;;26.58;22.38;;;;;;;6.81;89.99;99632.72;4992256;28;20061;-67
2022/01/04 08:43:14;;;;;;;26.30;23.13;;;;;;;6.79;90.55;99635.44;5001372;28;20049;-67
2022/01/04 08:45:40;;;;;;;26.83;23.25;;;;;;;6.81;90.26;99632.72;5010914;28;20092;-67
2022/01/04 08:48:05;;;;;;;26.83;23.00;;;;;;;6.82;89.62;99647.25;5018355;28;20101;-67
2022/01/04 08:50:31;;;;;;;27.27;23.42;;;;;;;6.81;89.91;99653.34;5012050;28;20026;-67
2022/01/04 08:52:57;;;;;;;28.92;23.50;;;;;;;6.79;89.66;99644.94;5021357;28;20037;-67
2022/01/04 08:55:23;;;;;;;29.42;24.80;;;;;;;6.76;89.81;99643.41;5021501;28;20052;-67
2022/01/04 08:57:49;;;;;;;28.63;24.38;;;;;;;6.83;90.31;99652.28;5011289;28;20386;-67
2022/01/04 09:00:15;;;;;;;29.02;24.35;;;;;;;6.85;90.75;99655.53;4999226;28;20030;-67
2022/01/04 09:02:41;;;;;;;27.27;24.38;;;;;;;6.83;90.05;99652.28;4998633;28;20037;-67
2022/01/04 09:05:07;;;;;;;28.63;24.75;;;;;;;6.86;90.54;99657.16;4997618;28;20363;-67
2022/01/04 09:07:32;;;;;;;29.42;25.13;;;;;;;6.85;89.92;99649.56;5000735;28;20061;-67
2022/01/04 09:09:58;;;;;;;30.35;25.00;;;;;;;6.85;90.71;99645.22;5024535;28;20075;-67
2022/01/04 09:12:28;;;;;;;30.05;26.00;;;;;;;6.86;90.76;99646.84;5012816;28;20112;-67
2022/01/04 09:20:03;;;;;;;29.58;25.58;;;;;;;6.92;90.51;99641.19;5010732;28;20120;-66
2022/01/04 09:22:28;;;;;;;31.08;26.50;;;;;;;6.95;90.33;99639.31;5008330;28;20032;-67
2022/01/04 09:24:54;;;;;;;31.70;27.33;;;;;;;6.90;89.74;99643.09;4999971;28;20038;-67
2022/01/04 09:27:19;;;;;;;32.05;26.83;;;;;;;6.96;89.93;99651.25;4998038;28;20045;-67
2022/01/04 09:29:44;;;;;;;31.48;26.55;;;;;;;6.95;89.70;99660.75;5009280;28;20037;-66
2022/01/04 09:32:16;;;;;;;31.85;26.77;;;;;;;6.98;89.68;99667.38;5025219;28;20033;-67
2022/01/04 09:34:42;;;;;;;31.00;26.30;;;;;;;6.99;89.76;99669.00;5018916;28;20034;-67
2022/01/04 09:37:07;;;;;;;30.50;26.02;;;;;;;6.96;89.61;99661.56;5009915;28;20359;-67
2022/01/04 09:39:32;;;;;;;32.42;27.40;;;;;;;7.00;90.31;99668.09;5020136;28;20124;-67
2022/01/04 09:41:59;;;;;;;30.05;25.80;;;;;;;7.00;89.96;99665.50;5012295;28;20025;-67
2022/01/04 09:44:27;;;;;;;31.13;26.45;;;;;;;7.01;89.90;99665.38;5030024;28;20072;-67
2022/01/04 09:46:53;;;;;;;32.17;26.83;;;;;;;6.99;90.31;99671.59;5016792;28;20382;-67
2022/01/04 09:49:19;;;;;;;31.63;26.55;;;;;;;7.01;90.19;99661.97;5012647;28;20045;-67
2022/01/04 09:51:45;;;;;;;30.58;27.13;;;;;;;7.03;90.34;99667.81;4992758;28;20068;-67
2022/01/04 09:54:11;;;;;;;32.88;27.30;;;;;;;7.05;89.98;99655.59;4994770;28;20028;-72
2022/01/04 09:56:37;;;;;;;31.52;26.55;;;;;;;7.04;89.46;99653.97;5017309;28;20033;-67
2022/01/04 09:59:03;;;;;;;31.70;25.83;;;;;;;7.04;90.14;99648.81;5033960;28;20112;-67
2022/01/04 10:01:38;;;;;;;32.58;26.58;;;;;;;7.06;90.12;99652.09;5033715;28;20096;-68
2022/01/04 10:04:04;;;;;;;33.38;26.50;;;;;;;7.05;90.31;99650.44;5022424;28;20040;-67
2022/01/04 10:06:30;;;;;;;31.02;26.83;;;;;;;7.09;90.16;99651.81;5019276;28;20033;-67
2022/01/04 10:09:01;;;;;;;32.67;26.88;;;;;;;7.07;89.60;99654.53;5033775;28;20033;-67
2022/01/04 10:11:32;;;;;;;33.80;26.77;;;;;;;7.09;89.63;99660.38;5033786;28;20116;-67
2022/01/04 10:14:00;;;;;;;32.30;27.83;;;;;;;7.10;89.50;99654.25;5033569;28;20072;-67
2022/01/04 10:16:25;;;;;;;30.35;26.13;;;;;;;7.14;90.01;99652.25;5021121;28;20037;-67
2022/01/04 10:18:51;;;;;;;31.50;25.90;;;;;;;7.12;90.03;99630.94;5014244;28;20025;-68
2022/01/04 10:21:17;;;;;;;30.20;26.83;;;;;;;7.14;89.54;99631.63;5021275;28;20033;-68
2022/01/04 10:23:51;;;;;;;30.13;26.80;;;;;;;7.15;89.45;99615.19;5031171;28;20087;-67
2022/01/04 10:26:27;;;;;;;33.08;27.50;;;;;;;7.17;90.08;99608.16;5013481;28;20067;-67
2022/01/04 10:28:52;;;;;;;32.20;27.90;;;;;;;7.14;89.87;99614.38;5016018;28;20027;-67
2022/01/04 10:31:18;;;;;;;33.22;27.27;;;;;;;7.20;89.28;99618.19;5019540;28;20096;-67
2022/01/04 10:33:44;;;;;;;30.90;26.92;;;;;;;7.20;89.54;99623.34;5006409;28;20049;-67
2022/01/04 10:36:11;;;;;;;29.60;25.25;;;;;;;7.22;89.33;99626.59;5003132;28;20076;-68
2022/01/04 10:38:43;;;;;;;32.40;27.35;;;;;;;7.25;89.53;99616.03;5029250;28;20032;-67
2022/01/04 10:41:20;;;;;;;31.08;26.95;;;;;;;7.27;89.34;99616.69;5032934;28;20064;-67
2022/01/04 10:43:49;;;;;;;31.38;26.35;;;;;;;7.28;89.52;99614.94;5032954;28;20092;-68
2022/01/04 10:46:18;;;;;;;33.65;27.33;;;;;;;7.27;89.11;99615.88;5032901;28;20057;-68
2022/01/04 10:48:46;;;;;;;31.83;26.75;;;;;;;7.28;89.17;99614.94;5028094;28;20022;-67
2022/01/04 10:51:21;;;;;;;30.88;25.45;;;;;;;7.35;89.52;99606.53;5012869;28;20045;-67
2022/01/04 10:53:47;;;;;;;32.47;27.33;;;;;;;7.34;89.19;99610.06;5003331;28;20528;-67
2022/01/04 10:56:23;;;;;;;32.58;26.92;;;;;;;7.32;89.14;99611.97;5028361;28;20029;-67
2022/01/04 10:58:50;;;;;;;32.95;27.95;;;;;;;7.33;89.49;99618.75;5025666;28;20068;-67
2022/01/04 11:01:18;;;;;;;32.65;27.15;;;;;;;7.37;89.51;99619.31;5032647;28;20477;-67
2022/01/04 11:03:47;;;;;;;32.33;27.27;;;;;;;7.36;88.54;99628.81;5032543;28;20084;-67
2022/01/04 11:06:22;;;;;;;30.60;26.90;;;;;;;7.35;89.27;99622.03;5031335;28;20557;-67
2022/01/04 11:08:48;;;;;;;33.28;27.65;;;;;;;7.34;88.99;99612.66;5014602;28;20025;-67
2022/01/04 11:11:13;;;;;;;32.55;27.90;;;;;;;7.30;89.73;99616.44;5031231;28;20028;-67
2022/01/04 11:13:39;;;;;;;34.72;29.08;;;;;;;7.30;90.52;99629.34;5022319;28;20029;-67
2022/01/04 11:16:06;;;;;;;34.70;29.30;;;;;;;7.31;90.76;99630.97;5023247;28;20104;-66
2022/01/04 11:18:33;;;;;;;34.20;28.98;;;;;;;7.28;91.11;99620.91;5016276;28;20037;-66
2022/01/04 11:20:59;;;;;;;31.75;27.95;;;;;;;7.26;91.17;99625.38;5026285;28;20393;-66
2022/01/04 11:23:29;;;;;;;24.40;21.38;;;;;;;7.22;90.42;99636.91;4995519;28;20029;-66
2022/01/04 11:25:56;;;;;;;22.65;19.85;;;;;;;7.18;90.11;99638.16;5011738;28;20501;-66
2022/01/04 11:28:22;;;;;;;16.80;13.60;;;;;;;7.11;89.55;99629.28;5024641;28;20029;-66
2022/01/04 11:31:00;;;;;;;16.90;12.77;;;;;;;7.08;90.02;99632.16;5021934;28;20033;-66
2022/01/04 11:33:29;;;;;;;15.35;11.63;;;;;;;7.05;89.57;99629.81;5031071;28;20104;-65